sensor_id;sensor_type;location;lat;lon;timestamp;P1;durP1;ratioP1;P2;durP2;ratioP2
66012;SDS011;52783;50.502;8.190;2022-12-07T00:01:23;34.10;;;17.38;;
66012;SDS011;52783;50.502;8.190;2022-12-07T00:03:51;42.85;;;18.38;;
66012;SDS011;52783;50.502;8.190;2022-12-07T00:06:18;37.08;;;17.38;;
66012;SDS011;52783;50.502;8.190;2022-12-07T00:08:45;41.72;;;18.38;;
66012;SDS011;52783;50.502;8.190;2022-12-07T00:11:12;44.13;;;18.13;;
66012;SDS011;52783;50.502;8.190;2022-12-07T00:13:45;37.67;;;17.45;;
66012;SDS011;52783;50.502;8.190;2022-12-07T00:16:13;42.95;;;18.30;;
66012;SDS011;52783;50.502;8.190;2022-12-07T00:18:42;36.65;;;17.67;;
66012;SDS011;52783;50.502;8.190;2022-12-07T00:21:10;39.13;;;17.25;;
66012;SDS011;52783;50.502;8.190;2022-12-07T00:23:41;37.75;;;17.85;;
66012;SDS011;52783;50.502;8.190;2022-12-07T00:26:09;49.85;;;18.50;;
66012;SDS011;52783;50.502;8.190;2022-12-07T00:28:36;39.05;;;18.75;;
66012;SDS011;52783;50.502;8.190;2022-12-07T00:31:03;42.85;;;18.20;;
66012;SDS011;52783;50.502;8.190;2022-12-07T00:33:33;41.50;;;18.17;;
66012;SDS011;52783;50.502;8.190;2022-12-07T00:36:01;39.83;;;17.33;;
66012;SDS011;52783;50.502;8.190;2022-12-07T00:38:29;35.53;;;16.48;;
66012;SDS011;52783;50.502;8.190;2022-12-07T00:40:57;35.42;;;15.05;;
66012;SDS011;52783;50.502;8.190;2022-12-07T00:43:27;31.17;;;15.43;;
66012;SDS011;52783;50.502;8.190;2022-12-07T00:45:53;30.45;;;14.43;;
66012;SDS011;52783;50.502;8.190;2022-12-07T00:48:20;34.08;;;14.27;;
66012;SDS011;52783;50.502;8.190;2022-12-07T00:50:46;30.20;;;13.60;;
66012;SDS011;52783;50.502;8.190;2022-12-07T00:53:12;36.05;;;13.95;;
66012;SDS011;52783;50.502;8.190;2022-12-07T00:55:38;30.70;;;13.52;;
66012;SDS011;52783;50.502;8.190;2022-12-07T00:58:03;29.17;;;13.90;;
66012;SDS011;52783;50.502;8.190;2022-12-07T01:00:29;29.30;;;12.82;;
66012;SDS011;52783;50.502;8.190;2022-12-07T01:02:55;26.52;;;12.57;;
66012;SDS011;52783;50.502;8.190;2022-12-07T01:05:21;28.65;;;12.45;;
66012;SDS011;52783;50.502;8.190;2022-12-07T01:07:46;37.33;;;13.30;;
66012;SDS011;52783;50.502;8.190;2022-12-07T01:10:12;33.25;;;12.63;;
66012;SDS011;52783;50.502;8.190;2022-12-07T01:12:38;28.13;;;13.18;;
66012;SDS011;52783;50.502;8.190;2022-12-07T01:15:04;29.75;;;13.00;;
66012;SDS011;52783;50.502;8.190;2022-12-07T01:17:30;26.33;;;13.55;;
66012;SDS011;52783;50.502;8.190;2022-12-07T01:19:56;30.77;;;13.40;;
66012;SDS011;52783;50.502;8.190;2022-12-07T01:22:21;25.33;;;12.32;;
66012;SDS011;52783;50.502;8.190;2022-12-07T01:24:47;29.55;;;14.35;;
66012;SDS011;52783;50.502;8.190;2022-12-07T01:27:13;29.58;;;13.55;;
66012;SDS011;52783;50.502;8.190;2022-12-07T01:29:39;27.05;;;12.65;;
66012;SDS011;52783;50.502;8.190;2022-12-07T01:32:04;31.85;;;13.25;;
66012;SDS011;52783;50.502;8.190;2022-12-07T01:34:30;29.30;;;13.18;;
66012;SDS011;52783;50.502;8.190;2022-12-07T01:36:55;27.70;;;14.30;;
66012;SDS011;52783;50.502;8.190;2022-12-07T01:39:21;29.38;;;14.50;;
66012;SDS011;52783;50.502;8.190;2022-12-07T01:41:47;27.52;;;13.45;;
66012;SDS011;52783;50.502;8.190;2022-12-07T01:46:59;30.73;;;14.02;;
66012;SDS011;52783;50.502;8.190;2022-12-07T01:52:49;31.73;;;12.95;;
66012;SDS011;52783;50.502;8.190;2022-12-07T01:54:59;26.38;;;12.43;;
66012;SDS011;52783;50.502;8.190;2022-12-07T01:57:28;27.00;;;13.53;;
66012;SDS011;52783;50.502;8.190;2022-12-07T01:59:57;28.15;;;11.85;;
66012;SDS011;52783;50.502;8.190;2022-12-07T02:02:25;29.50;;;11.95;;
66012;SDS011;52783;50.502;8.190;2022-12-07T02:04:59;25.05;;;12.20;;
66012;SDS011;52783;50.502;8.190;2022-12-07T02:07:25;26.92;;;11.73;;
66012;SDS011;52783;50.502;8.190;2022-12-07T02:09:52;27.90;;;12.27;;
66012;SDS011;52783;50.502;8.190;2022-12-07T02:12:18;25.90;;;11.82;;
66012;SDS011;52783;50.502;8.190;2022-12-07T02:14:45;24.08;;;11.07;;
66012;SDS011;52783;50.502;8.190;2022-12-07T02:17:31;27.58;;;11.65;;
66012;SDS011;52783;50.502;8.190;2022-12-07T02:25:52;30.10;;;12.45;;
66012;SDS011;52783;50.502;8.190;2022-12-07T02:29:14;27.75;;;12.23;;
66012;SDS011;52783;50.502;8.190;2022-12-07T02:31:50;30.67;;;12.48;;
66012;SDS011;52783;50.502;8.190;2022-12-07T02:34:47;26.35;;;12.05;;
66012;SDS011;52783;50.502;8.190;2022-12-07T02:40:00;25.92;;;11.88;;
66012;SDS011;52783;50.502;8.190;2022-12-07T02:42:42;31.70;;;12.55;;
66012;SDS011;52783;50.502;8.190;2022-12-07T02:45:12;22.80;;;11.93;;
66012;SDS011;52783;50.502;8.190;2022-12-07T02:47:40;34.60;;;13.02;;
66012;SDS011;52783;50.502;8.190;2022-12-07T02:50:08;28.20;;;12.18;;
66012;SDS011;52783;50.502;8.190;2022-12-07T02:52:34;40.85;;;13.07;;
66012;SDS011;52783;50.502;8.190;2022-12-07T02:54:59;30.92;;;13.32;;
66012;SDS011;52783;50.502;8.190;2022-12-07T02:57:37;35.38;;;13.73;;
66012;SDS011;52783;50.502;8.190;2022-12-07T03:00:20;25.20;;;11.93;;
66012;SDS011;52783;50.502;8.190;2022-12-07T03:07:51;25.83;;;11.00;;
66012;SDS011;52783;50.502;8.190;2022-12-07T03:13:03;28.73;;;12.27;;
66012;SDS011;52783;50.502;8.190;2022-12-07T03:18:39;29.67;;;11.38;;
66012;SDS011;52783;50.502;8.190;2022-12-07T03:21:18;29.88;;;11.57;;
66012;SDS011;52783;50.502;8.190;2022-12-07T03:23:47;24.40;;;11.70;;
66012;SDS011;52783;50.502;8.190;2022-12-07T03:26:17;39.13;;;11.52;;
66012;SDS011;52783;50.502;8.190;2022-12-07T03:28:49;31.80;;;11.80;;
66012;SDS011;52783;50.502;8.190;2022-12-07T03:31:24;27.73;;;11.25;;
66012;SDS011;52783;50.502;8.190;2022-12-07T03:34:06;26.30;;;11.77;;
66012;SDS011;52783;50.502;8.190;2022-12-07T03:36:39;23.75;;;10.77;;
66012;SDS011;52783;50.502;8.190;2022-12-07T03:39:26;26.88;;;12.68;;
66012;SDS011;52783;50.502;8.190;2022-12-07T03:42:00;25.60;;;12.13;;
66012;SDS011;52783;50.502;8.190;2022-12-07T03:44:29;30.00;;;12.52;;
66012;SDS011;52783;50.502;8.190;2022-12-07T03:47:01;28.88;;;12.18;;
66012;SDS011;52783;50.502;8.190;2022-12-07T03:49:43;28.00;;;12.15;;
66012;SDS011;52783;50.502;8.190;2022-12-07T03:55:34;30.27;;;12.40;;
66012;SDS011;52783;50.502;8.190;2022-12-07T03:58:06;37.00;;;13.30;;
66012;SDS011;52783;50.502;8.190;2022-12-07T04:00:35;27.92;;;11.27;;
66012;SDS011;52783;50.502;8.190;2022-12-07T04:03:02;31.52;;;12.45;;
66012;SDS011;52783;50.502;8.190;2022-12-07T04:05:27;27.63;;;12.15;;
66012;SDS011;52783;50.502;8.190;2022-12-07T04:07:53;29.67;;;12.68;;
66012;SDS011;52783;50.502;8.190;2022-12-07T04:10:18;30.77;;;13.00;;
66012;SDS011;52783;50.502;8.190;2022-12-07T04:12:44;32.75;;;12.60;;
66012;SDS011;52783;50.502;8.190;2022-12-07T04:15:10;21.50;;;11.02;;
66012;SDS011;52783;50.502;8.190;2022-12-07T04:17:36;36.47;;;12.55;;
66012;SDS011;52783;50.502;8.190;2022-12-07T04:20:02;28.15;;;12.27;;
66012;SDS011;52783;50.502;8.190;2022-12-07T04:22:29;25.98;;;12.30;;
66012;SDS011;52783;50.502;8.190;2022-12-07T04:24:54;32.28;;;13.15;;
66012;SDS011;52783;50.502;8.190;2022-12-07T04:27:20;30.00;;;12.90;;
66012;SDS011;52783;50.502;8.190;2022-12-07T04:29:45;30.98;;;13.82;;
66012;SDS011;52783;50.502;8.190;2022-12-07T04:32:11;29.40;;;12.68;;
66012;SDS011;52783;50.502;8.190;2022-12-07T04:34:36;26.55;;;11.77;;
66012;SDS011;52783;50.502;8.190;2022-12-07T04:37:03;31.33;;;11.80;;
66012;SDS011;52783;50.502;8.190;2022-12-07T04:39:29;29.10;;;12.20;;
66012;SDS011;52783;50.502;8.190;2022-12-07T04:41:57;28.88;;;12.18;;
66012;SDS011;52783;50.502;8.190;2022-12-07T04:44:23;29.95;;;13.90;;
66012;SDS011;52783;50.502;8.190;2022-12-07T04:46:49;31.23;;;13.02;;
66012;SDS011;52783;50.502;8.190;2022-12-07T04:49:15;29.75;;;12.75;;
66012;SDS011;52783;50.502;8.190;2022-12-07T04:51:41;27.33;;;12.50;;
66012;SDS011;52783;50.502;8.190;2022-12-07T04:54:07;33.55;;;12.82;;
66012;SDS011;52783;50.502;8.190;2022-12-07T04:56:33;34.67;;;14.35;;
66012;SDS011;52783;50.502;8.190;2022-12-07T04:59:00;39.40;;;14.55;;
66012;SDS011;52783;50.502;8.190;2022-12-07T05:01:26;40.13;;;13.57;;
66012;SDS011;52783;50.502;8.190;2022-12-07T05:03:52;30.42;;;13.82;;
66012;SDS011;52783;50.502;8.190;2022-12-07T05:06:18;32.65;;;14.55;;
66012;SDS011;52783;50.502;8.190;2022-12-07T05:08:44;37.88;;;14.38;;
66012;SDS011;52783;50.502;8.190;2022-12-07T05:11:10;39.55;;;13.88;;
66012;SDS011;52783;50.502;8.190;2022-12-07T05:13:57;39.47;;;14.65;;
66012;SDS011;52783;50.502;8.190;2022-12-07T05:16:23;39.58;;;14.77;;
66012;SDS011;52783;50.502;8.190;2022-12-07T05:18:48;34.45;;;14.88;;
66012;SDS011;52783;50.502;8.190;2022-12-07T05:21:14;33.50;;;14.63;;
66012;SDS011;52783;50.502;8.190;2022-12-07T05:23:39;35.95;;;14.20;;
66012;SDS011;52783;50.502;8.190;2022-12-07T05:26:05;43.15;;;14.95;;
66012;SDS011;52783;50.502;8.190;2022-12-07T05:28:30;37.13;;;14.05;;
66012;SDS011;52783;50.502;8.190;2022-12-07T05:30:56;32.67;;;14.45;;
66012;SDS011;52783;50.502;8.190;2022-12-07T05:33:21;39.22;;;14.93;;
66012;SDS011;52783;50.502;8.190;2022-12-07T05:35:47;34.05;;;15.32;;
66012;SDS011;52783;50.502;8.190;2022-12-07T05:38:12;33.65;;;14.43;;
66012;SDS011;52783;50.502;8.190;2022-12-07T05:40:38;41.42;;;14.77;;
66012;SDS011;52783;50.502;8.190;2022-12-07T05:43:04;36.92;;;13.93;;
66012;SDS011;52783;50.502;8.190;2022-12-07T05:45:29;35.63;;;14.13;;
66012;SDS011;52783;50.502;8.190;2022-12-07T05:47:55;35.72;;;13.77;;
66012;SDS011;52783;50.502;8.190;2022-12-07T05:50:20;37.38;;;13.25;;
66012;SDS011;52783;50.502;8.190;2022-12-07T05:52:46;39.67;;;14.60;;
66012;SDS011;52783;50.502;8.190;2022-12-07T05:55:11;41.65;;;14.95;;
66012;SDS011;52783;50.502;8.190;2022-12-07T05:57:37;51.28;;;15.02;;
66012;SDS011;52783;50.502;8.190;2022-12-07T06:00:03;38.28;;;14.65;;
66012;SDS011;52783;50.502;8.190;2022-12-07T06:02:29;39.50;;;14.88;;
66012;SDS011;52783;50.502;8.190;2022-12-07T06:04:55;40.55;;;13.43;;
66012;SDS011;52783;50.502;8.190;2022-12-07T06:07:20;44.25;;;15.07;;
66012;SDS011;52783;50.502;8.190;2022-12-07T06:09:46;37.15;;;12.95;;
66012;SDS011;52783;50.502;8.190;2022-12-07T06:12:12;43.67;;;14.75;;
66012;SDS011;52783;50.502;8.190;2022-12-07T06:14:57;32.78;;;12.55;;
66012;SDS011;52783;50.502;8.190;2022-12-07T06:17:23;28.85;;;13.65;;
66012;SDS011;52783;50.502;8.190;2022-12-07T06:19:48;23.85;;;11.10;;
66012;SDS011;52783;50.502;8.190;2022-12-07T06:22:15;25.73;;;11.07;;
66012;SDS011;52783;50.502;8.190;2022-12-07T06:24:41;26.50;;;11.57;;
66012;SDS011;52783;50.502;8.190;2022-12-07T06:27:07;23.63;;;11.32;;
66012;SDS011;52783;50.502;8.190;2022-12-07T06:29:33;24.92;;;12.20;;
66012;SDS011;52783;50.502;8.190;2022-12-07T06:31:59;28.73;;;12.00;;
66012;SDS011;52783;50.502;8.190;2022-12-07T06:34:24;29.33;;;11.80;;
66012;SDS011;52783;50.502;8.190;2022-12-07T06:36:50;30.88;;;12.48;;
66012;SDS011;52783;50.502;8.190;2022-12-07T06:39:18;30.25;;;13.00;;
66012;SDS011;52783;50.502;8.190;2022-12-07T06:41:45;31.23;;;11.90;;
66012;SDS011;52783;50.502;8.190;2022-12-07T06:44:11;29.42;;;13.15;;
66012;SDS011;52783;50.502;8.190;2022-12-07T06:46:36;34.75;;;13.45;;
66012;SDS011;52783;50.502;8.190;2022-12-07T06:49:02;26.23;;;12.95;;
66012;SDS011;52783;50.502;8.190;2022-12-07T06:51:29;25.13;;;12.77;;
66012;SDS011;52783;50.502;8.190;2022-12-07T06:53:55;27.05;;;12.40;;
66012;SDS011;52783;50.502;8.190;2022-12-07T06:56:20;28.70;;;12.90;;
66012;SDS011;52783;50.502;8.190;2022-12-07T06:58:47;23.52;;;11.77;;
66012;SDS011;52783;50.502;8.190;2022-12-07T07:01:13;29.80;;;12.35;;
66012;SDS011;52783;50.502;8.190;2022-12-07T07:03:41;30.52;;;11.95;;
66012;SDS011;52783;50.502;8.190;2022-12-07T07:06:07;30.80;;;14.27;;
66012;SDS011;52783;50.502;8.190;2022-12-07T07:08:34;30.58;;;11.80;;
66012;SDS011;52783;50.502;8.190;2022-12-07T07:11:01;28.15;;;12.48;;
66012;SDS011;52783;50.502;8.190;2022-12-07T07:13:27;30.80;;;13.15;;
66012;SDS011;52783;50.502;8.190;2022-12-07T07:15:53;25.50;;;12.18;;
66012;SDS011;52783;50.502;8.190;2022-12-07T07:18:18;28.15;;;12.55;;
66012;SDS011;52783;50.502;8.190;2022-12-07T07:20:44;25.13;;;11.75;;
66012;SDS011;52783;50.502;8.190;2022-12-07T07:23:10;30.40;;;12.70;;
66012;SDS011;52783;50.502;8.190;2022-12-07T07:25:35;29.10;;;12.88;;
66012;SDS011;52783;50.502;8.190;2022-12-07T07:28:01;30.13;;;12.35;;
66012;SDS011;52783;50.502;8.190;2022-12-07T07:30:27;27.15;;;13.30;;
66012;SDS011;52783;50.502;8.190;2022-12-07T07:32:57;26.55;;;13.02;;
66012;SDS011;52783;50.502;8.190;2022-12-07T07:35:23;28.63;;;13.13;;
66012;SDS011;52783;50.502;8.190;2022-12-07T07:37:49;27.10;;;12.80;;
66012;SDS011;52783;50.502;8.190;2022-12-07T07:40:15;27.27;;;13.00;;
66012;SDS011;52783;50.502;8.190;2022-12-07T07:42:40;29.85;;;12.73;;
66012;SDS011;52783;50.502;8.190;2022-12-07T07:45:06;27.38;;;11.80;;
66012;SDS011;52783;50.502;8.190;2022-12-07T07:47:32;36.88;;;12.85;;
66012;SDS011;52783;50.502;8.190;2022-12-07T07:49:58;38.50;;;13.35;;
66012;SDS011;52783;50.502;8.190;2022-12-07T07:52:23;28.95;;;13.68;;
66012;SDS011;52783;50.502;8.190;2022-12-07T07:54:49;23.42;;;12.52;;
66012;SDS011;52783;50.502;8.190;2022-12-07T07:57:16;26.70;;;13.73;;
66012;SDS011;52783;50.502;8.190;2022-12-07T07:59:42;20.48;;;11.70;;
66012;SDS011;52783;50.502;8.190;2022-12-07T08:02:10;28.33;;;13.18;;
66012;SDS011;52783;50.502;8.190;2022-12-07T08:04:39;31.13;;;12.40;;
66012;SDS011;52783;50.502;8.190;2022-12-07T08:07:05;30.13;;;12.68;;
66012;SDS011;52783;50.502;8.190;2022-12-07T08:09:33;26.70;;;11.77;;
66012;SDS011;52783;50.502;8.190;2022-12-07T08:11:59;30.85;;;12.57;;
66012;SDS011;52783;50.502;8.190;2022-12-07T08:14:25;29.98;;;12.20;;
66012;SDS011;52783;50.502;8.190;2022-12-07T08:16:52;36.75;;;12.55;;
66012;SDS011;52783;50.502;8.190;2022-12-07T08:19:18;22.73;;;12.10;;
66012;SDS011;52783;50.502;8.190;2022-12-07T08:21:43;23.83;;;11.90;;
66012;SDS011;52783;50.502;8.190;2022-12-07T08:24:09;21.88;;;11.55;;
66012;SDS011;52783;50.502;8.190;2022-12-07T08:26:34;26.52;;;11.68;;
66012;SDS011;52783;50.502;8.190;2022-12-07T08:29:00;17.60;;;9.63;;
66012;SDS011;52783;50.502;8.190;2022-12-07T08:31:25;25.95;;;9.77;;
66012;SDS011;52783;50.502;8.190;2022-12-07T08:33:52;24.48;;;9.60;;
66012;SDS011;52783;50.502;8.190;2022-12-07T08:36:18;15.32;;;8.98;;
66012;SDS011;52783;50.502;8.190;2022-12-07T08:38:44;19.50;;;10.00;;
66012;SDS011;52783;50.502;8.190;2022-12-07T08:41:09;21.48;;;9.18;;
66012;SDS011;52783;50.502;8.190;2022-12-07T08:43:35;15.80;;;8.65;;
66012;SDS011;52783;50.502;8.190;2022-12-07T08:46:15;18.90;;;8.90;;
66012;SDS011;52783;50.502;8.190;2022-12-07T08:49:06;15.90;;;8.80;;
66012;SDS011;52783;50.502;8.190;2022-12-07T08:51:34;16.30;;;7.53;;
66012;SDS011;52783;50.502;8.190;2022-12-07T08:54:01;12.20;;;7.05;;
66012;SDS011;52783;50.502;8.190;2022-12-07T08:56:30;12.43;;;7.03;;
66012;SDS011;52783;50.502;8.190;2022-12-07T08:58:55;12.18;;;7.68;;
66012;SDS011;52783;50.502;8.190;2022-12-07T09:01:22;16.70;;;7.75;;
66012;SDS011;52783;50.502;8.190;2022-12-07T09:03:48;18.17;;;6.65;;
66012;SDS011;52783;50.502;8.190;2022-12-07T09:06:13;14.55;;;7.25;;
66012;SDS011;52783;50.502;8.190;2022-12-07T09:08:40;12.75;;;6.88;;
66012;SDS011;52783;50.502;8.190;2022-12-07T09:11:10;12.57;;;6.83;;
66012;SDS011;52783;50.502;8.190;2022-12-07T09:13:36;13.80;;;6.65;;
66012;SDS011;52783;50.502;8.190;2022-12-07T09:16:01;10.35;;;6.15;;
66012;SDS011;52783;50.502;8.190;2022-12-07T09:18:27;14.07;;;6.65;;
66012;SDS011;52783;50.502;8.190;2022-12-07T09:20:53;10.23;;;6.93;;
66012;SDS011;52783;50.502;8.190;2022-12-07T09:23:18;11.93;;;6.82;;
66012;SDS011;52783;50.502;8.190;2022-12-07T09:25:44;15.30;;;6.68;;
66012;SDS011;52783;50.502;8.190;2022-12-07T09:28:09;12.45;;;7.05;;
66012;SDS011;52783;50.502;8.190;2022-12-07T09:30:35;13.48;;;7.97;;
66012;SDS011;52783;50.502;8.190;2022-12-07T09:33:00;14.32;;;7.07;;
66012;SDS011;52783;50.502;8.190;2022-12-07T09:35:26;15.82;;;6.63;;
66012;SDS011;52783;50.502;8.190;2022-12-07T09:37:52;11.77;;;7.13;;
66012;SDS011;52783;50.502;8.190;2022-12-07T09:40:18;13.25;;;6.82;;
66012;SDS011;52783;50.502;8.190;2022-12-07T09:42:49;14.15;;;7.43;;
66012;SDS011;52783;50.502;8.190;2022-12-07T09:47:46;16.30;;;6.68;;
66012;SDS011;52783;50.502;8.190;2022-12-07T09:50:13;13.38;;;7.22;;
66012;SDS011;52783;50.502;8.190;2022-12-07T09:52:41;14.50;;;6.65;;
66012;SDS011;52783;50.502;8.190;2022-12-07T09:55:10;15.77;;;7.20;;
66012;SDS011;52783;50.502;8.190;2022-12-07T09:57:37;12.90;;;7.10;;
66012;SDS011;52783;50.502;8.190;2022-12-07T10:00:05;15.45;;;7.75;;
66012;SDS011;52783;50.502;8.190;2022-12-07T10:02:38;15.45;;;6.13;;
66012;SDS011;52783;50.502;8.190;2022-12-07T10:05:07;8.88;;;5.63;;
66012;SDS011;52783;50.502;8.190;2022-12-07T10:07:40;9.35;;;5.13;;
66012;SDS011;52783;50.502;8.190;2022-12-07T10:10:09;12.63;;;5.18;;
66012;SDS011;52783;50.502;8.190;2022-12-07T10:12:53;11.57;;;5.35;;
66012;SDS011;52783;50.502;8.190;2022-12-07T10:15:37;10.02;;;5.20;;
66012;SDS011;52783;50.502;8.190;2022-12-07T10:18:17;12.75;;;5.35;;
66012;SDS011;52783;50.502;8.190;2022-12-07T10:23:40;10.77;;;5.00;;
66012;SDS011;52783;50.502;8.190;2022-12-07T10:28:50;7.88;;;4.43;;
66012;SDS011;52783;50.502;8.190;2022-12-07T10:31:17;10.07;;;4.88;;
66012;SDS011;52783;50.502;8.190;2022-12-07T10:33:50;10.80;;;5.30;;
66012;SDS011;52783;50.502;8.190;2022-12-07T10:39:04;12.43;;;5.30;;
66012;SDS011;52783;50.502;8.190;2022-12-07T10:44:25;10.57;;;5.72;;
66012;SDS011;52783;50.502;8.190;2022-12-07T10:58:43;13.52;;;5.95;;
66012;SDS011;52783;50.502;8.190;2022-12-07T11:00:54;17.63;;;6.53;;
66012;SDS011;52783;50.502;8.190;2022-12-07T11:03:50;13.95;;;6.07;;
66012;SDS011;52783;50.502;8.190;2022-12-07T11:06:22;10.98;;;5.75;;
66012;SDS011;52783;50.502;8.190;2022-12-07T11:09:20;13.45;;;6.30;;
66012;SDS011;52783;50.502;8.190;2022-12-07T11:15:15;7.90;;;4.23;;
66012;SDS011;52783;50.502;8.190;2022-12-07T11:33:54;9.70;;;3.15;;
66012;SDS011;52783;50.502;8.190;2022-12-07T11:39:16;8.07;;;3.28;;
66012;SDS011;52783;50.502;8.190;2022-12-07T11:41:46;7.05;;;3.05;;
66012;SDS011;52783;50.502;8.190;2022-12-07T11:44:24;8.82;;;3.90;;
66012;SDS011;52783;50.502;8.190;2022-12-07T11:49:40;4.53;;;3.10;;
66012;SDS011;52783;50.502;8.190;2022-12-07T11:52:08;6.22;;;2.95;;
66012;SDS011;52783;50.502;8.190;2022-12-07T11:54:45;3.45;;;2.88;;
66012;SDS011;52783;50.502;8.190;2022-12-07T11:57:47;7.88;;;3.70;;
66012;SDS011;52783;50.502;8.190;2022-12-07T12:00:13;15.63;;;3.97;;
66012;SDS011;52783;50.502;8.190;2022-12-07T12:03:02;9.65;;;5.00;;
66012;SDS011;52783;50.502;8.190;2022-12-07T12:05:34;11.32;;;4.18;;
66012;SDS011;52783;50.502;8.190;2022-12-07T12:08:03;13.50;;;4.55;;
66012;SDS011;52783;50.502;8.190;2022-12-07T12:13:16;13.10;;;5.38;;
66012;SDS011;52783;50.502;8.190;2022-12-07T12:18:52;9.45;;;4.70;;
66012;SDS011;52783;50.502;8.190;2022-12-07T12:21:41;10.50;;;4.57;;
66012;SDS011;52783;50.502;8.190;2022-12-07T12:24:12;7.95;;;3.72;;
66012;SDS011;52783;50.502;8.190;2022-12-07T12:26:48;6.93;;;4.03;;
66012;SDS011;52783;50.502;8.190;2022-12-07T12:29:26;8.02;;;4.32;;
66012;SDS011;52783;50.502;8.190;2022-12-07T12:37:37;10.55;;;4.43;;
66012;SDS011;52783;50.502;8.190;2022-12-07T12:40:23;9.50;;;4.32;;
66012;SDS011;52783;50.502;8.190;2022-12-07T12:42:55;8.27;;;3.90;;
66012;SDS011;52783;50.502;8.190;2022-12-07T12:45:23;8.90;;;4.25;;
66012;SDS011;52783;50.502;8.190;2022-12-07T12:48:02;13.25;;;4.05;;
66012;SDS011;52783;50.502;8.190;2022-12-07T12:53:04;9.90;;;3.90;;
66012;SDS011;52783;50.502;8.190;2022-12-07T13:00:48;8.70;;;3.90;;
66012;SDS011;52783;50.502;8.190;2022-12-07T13:03:52;10.07;;;3.55;;
66012;SDS011;52783;50.502;8.190;2022-12-07T13:06:29;12.35;;;3.80;;
66012;SDS011;52783;50.502;8.190;2022-12-07T13:09:00;6.95;;;3.90;;
66012;SDS011;52783;50.502;8.190;2022-12-07T13:11:37;9.45;;;3.40;;
66012;SDS011;52783;50.502;8.190;2022-12-07T13:16:53;7.15;;;3.65;;
66012;SDS011;52783;50.502;8.190;2022-12-07T13:28:04;5.93;;;2.88;;
66012;SDS011;52783;50.502;8.190;2022-12-07T13:30:44;3.95;;;3.05;;
66012;SDS011;52783;50.502;8.190;2022-12-07T13:33:15;7.25;;;2.80;;
66012;SDS011;52783;50.502;8.190;2022-12-07T13:35:43;6.30;;;2.97;;
66012;SDS011;52783;50.502;8.190;2022-12-07T13:38:28;12.18;;;3.58;;
66012;SDS011;52783;50.502;8.190;2022-12-07T13:41:16;9.88;;;3.80;;
66012;SDS011;52783;50.502;8.190;2022-12-07T13:44:33;5.18;;;2.78;;
66012;SDS011;52783;50.502;8.190;2022-12-07T13:49:29;7.70;;;2.95;;
66012;SDS011;52783;50.502;8.190;2022-12-07T13:54:59;9.15;;;4.57;;
66012;SDS011;52783;50.502;8.190;2022-12-07T13:57:33;13.95;;;5.90;;
66012;SDS011;52783;50.502;8.190;2022-12-07T14:00:01;17.58;;;7.20;;
66012;SDS011;52783;50.502;8.190;2022-12-07T14:02:29;9.43;;;4.50;;
66012;SDS011;52783;50.502;8.190;2022-12-07T14:05:10;11.05;;;3.88;;
66012;SDS011;52783;50.502;8.190;2022-12-07T14:08:40;11.32;;;4.07;;
66012;SDS011;52783;50.502;8.190;2022-12-07T14:10:39;16.95;;;3.88;;
66012;SDS011;52783;50.502;8.190;2022-12-07T14:16:17;6.45;;;3.78;;
66012;SDS011;52783;50.502;8.190;2022-12-07T14:19:00;8.27;;;3.50;;
66012;SDS011;52783;50.502;8.190;2022-12-07T14:21:31;5.25;;;2.65;;
66012;SDS011;52783;50.502;8.190;2022-12-07T14:24:02;3.97;;;2.22;;
66012;SDS011;52783;50.502;8.190;2022-12-07T14:26:29;3.22;;;2.08;;
66012;SDS011;52783;50.502;8.190;2022-12-07T14:29:18;2.92;;;2.10;;
66012;SDS011;52783;50.502;8.190;2022-12-07T14:31:47;4.85;;;2.22;;
66012;SDS011;52783;50.502;8.190;2022-12-07T14:34:13;1.60;;;1.13;;
66012;SDS011;52783;50.502;8.190;2022-12-07T14:36:39;1.67;;;1.42;;
66012;SDS011;52783;50.502;8.190;2022-12-07T14:39:04;2.83;;;1.63;;
66012;SDS011;52783;50.502;8.190;2022-12-07T14:41:30;1.40;;;1.30;;
66012;SDS011;52783;50.502;8.190;2022-12-07T14:44:14;3.60;;;1.95;;
66012;SDS011;52783;50.502;8.190;2022-12-07T14:46:39;2.22;;;1.30;;
66012;SDS011;52783;50.502;8.190;2022-12-07T14:49:05;1.73;;;1.63;;
66012;SDS011;52783;50.502;8.190;2022-12-07T14:51:30;1.60;;;1.50;;
66012;SDS011;52783;50.502;8.190;2022-12-07T14:53:57;2.42;;;1.80;;
66012;SDS011;52783;50.502;8.190;2022-12-07T14:56:23;4.22;;;2.00;;
66012;SDS011;52783;50.502;8.190;2022-12-07T14:58:49;2.88;;;2.40;;
66012;SDS011;52783;50.502;8.190;2022-12-07T15:01:15;4.40;;;2.50;;
66012;SDS011;52783;50.502;8.190;2022-12-07T15:03:40;5.65;;;2.80;;
66012;SDS011;52783;50.502;8.190;2022-12-07T15:06:06;5.03;;;3.28;;
66012;SDS011;52783;50.502;8.190;2022-12-07T15:08:32;7.60;;;3.25;;
66012;SDS011;52783;50.502;8.190;2022-12-07T15:10:58;4.47;;;2.67;;
66012;SDS011;52783;50.502;8.190;2022-12-07T15:13:23;5.43;;;2.60;;
66012;SDS011;52783;50.502;8.190;2022-12-07T15:16:11;6.30;;;2.53;;
66012;SDS011;52783;50.502;8.190;2022-12-07T15:18:40;4.30;;;2.58;;
66012;SDS011;52783;50.502;8.190;2022-12-07T15:21:09;4.93;;;2.42;;
66012;SDS011;52783;50.502;8.190;2022-12-07T15:23:38;6.15;;;3.15;;
66012;SDS011;52783;50.502;8.190;2022-12-07T15:26:04;4.03;;;2.40;;
66012;SDS011;52783;50.502;8.190;2022-12-07T15:28:29;4.75;;;2.80;;
66012;SDS011;52783;50.502;8.190;2022-12-07T15:30:55;6.47;;;3.35;;
66012;SDS011;52783;50.502;8.190;2022-12-07T15:33:20;5.82;;;3.47;;
66012;SDS011;52783;50.502;8.190;2022-12-07T15:35:46;10.05;;;3.33;;
66012;SDS011;52783;50.502;8.190;2022-12-07T15:38:12;5.10;;;3.45;;
66012;SDS011;52783;50.502;8.190;2022-12-07T15:40:38;7.47;;;2.58;;
66012;SDS011;52783;50.502;8.190;2022-12-07T15:43:03;4.25;;;2.90;;
66012;SDS011;52783;50.502;8.190;2022-12-07T15:45:29;3.88;;;3.00;;
66012;SDS011;52783;50.502;8.190;2022-12-07T15:47:55;6.13;;;3.60;;
66012;SDS011;52783;50.502;8.190;2022-12-07T15:50:23;4.60;;;3.13;;
66012;SDS011;52783;50.502;8.190;2022-12-07T15:52:49;8.27;;;3.42;;
66012;SDS011;52783;50.502;8.190;2022-12-07T15:55:15;9.13;;;4.55;;
66012;SDS011;52783;50.502;8.190;2022-12-07T15:57:40;16.80;;;7.50;;
66012;SDS011;52783;50.502;8.190;2022-12-07T16:00:07;5.45;;;3.83;;
66012;SDS011;52783;50.502;8.190;2022-12-07T16:02:36;6.60;;;3.35;;
66012;SDS011;52783;50.502;8.190;2022-12-07T16:05:02;10.02;;;3.65;;
66012;SDS011;52783;50.502;8.190;2022-12-07T16:07:28;5.20;;;3.05;;
66012;SDS011;52783;50.502;8.190;2022-12-07T16:09:54;5.63;;;3.13;;
66012;SDS011;52783;50.502;8.190;2022-12-07T16:12:19;8.40;;;3.95;;
66012;SDS011;52783;50.502;8.190;2022-12-07T16:14:45;8.23;;;4.03;;
66012;SDS011;52783;50.502;8.190;2022-12-07T16:17:10;6.90;;;4.18;;
66012;SDS011;52783;50.502;8.190;2022-12-07T16:22:30;8.27;;;4.45;;
66012;SDS011;52783;50.502;8.190;2022-12-07T16:24:56;8.48;;;4.88;;
66012;SDS011;52783;50.502;8.190;2022-12-07T16:27:21;7.03;;;5.03;;
66012;SDS011;52783;50.502;8.190;2022-12-07T16:29:47;12.35;;;5.32;;
66012;SDS011;52783;50.502;8.190;2022-12-07T16:32:12;14.50;;;6.35;;
66012;SDS011;52783;50.502;8.190;2022-12-07T16:34:39;9.80;;;6.07;;
66012;SDS011;52783;50.502;8.190;2022-12-07T16:37:04;11.98;;;5.57;;
66012;SDS011;52783;50.502;8.190;2022-12-07T16:39:30;11.80;;;6.35;;
66012;SDS011;52783;50.502;8.190;2022-12-07T16:41:56;15.15;;;7.35;;
66012;SDS011;52783;50.502;8.190;2022-12-07T16:44:22;13.68;;;8.35;;